Time;durP1;ratioP1;P1;durP2;ratioP2;P2;SDS_P1;SDS_P2;PMS_P1;PMS_P2;Temp;Humidity;BMP_temperature;BMP_pressure;BME280_temperature;BME280_humidity;BME280_pressure;Samples;Min_cycle;Max_cycle;Signal;HPM_P1;HPM_P2
2021/08/18 00:00:25;;;;;;;7.43;4.78;;;;;;;;;;5010201;28;20137;-63
2021/08/18 00:03:10;;;;;;;8.85;6.05;;;;;;;;;;5012377;28;20057;-63
2021/08/18 00:05:56;;;;;;;7.63;4.90;;;;;;;;;;5010563;28;20538;-63
2021/08/18 00:08:42;;;;;;;8.65;4.32;;;;;;;;;;5012162;28;20050;-63
2021/08/18 00:11:27;;;;;;;8.82;5.13;;;;;;;;;;5010340;28;20048;-63
2021/08/18 00:14:13;;;;;;;10.52;5.03;;;;;;;;;;5010328;28;20064;-63
2021/08/18 00:16:58;;;;;;;9.95;5.15;;;;;;;;;;5012391;28;20080;-63
2021/08/18 00:19:43;;;;;;;7.97;5.00;;;;;;;;;;5012392;28;20052;-63
2021/08/18 00:22:29;;;;;;;8.82;5.32;;;;;;;;;;5011185;28;20045;-63
2021/08/18 00:25:15;;;;;;;8.68;4.78;;;;;;;;;;5011022;28;20066;-63
2021/08/18 00:28:00;;;;;;;8.05;4.90;;;;;;;;;;5012233;28;20054;-63
2021/08/18 00:30:46;;;;;;;10.10;5.10;;;;;;;;;;5012301;28;20038;-63
2021/08/18 00:33:32;;;;;;;8.50;4.82;;;;;;;;;;5011716;28;20532;-63
2021/08/18 00:36:18;;;;;;;7.63;4.32;;;;;;;;;;5010207;28;20129;-63
2021/08/18 00:39:03;;;;;;;8.30;4.28;;;;;;;;;;5012449;28;20053;-63
2021/08/18 00:41:49;;;;;;;7.75;4.28;;;;;;;;;;5012098;28;20046;-63
2021/08/18 00:44:35;;;;;;;8.45;4.82;;;;;;;;;;5010745;28;20053;-63
2021/08/18 00:47:20;;;;;;;7.80;4.13;;;;;;;;;;5010907;28;20107;-63
2021/08/18 00:50:06;;;;;;;7.05;4.47;;;;;;;;;;5009898;28;20408;-63
2021/08/18 00:52:51;;;;;;;7.13;5.25;;;;;;;;;;5011669;28;20045;-63
2021/08/18 00:55:36;;;;;;;9.57;4.93;;;;;;;;;;5010574;28;20054;-63
2021/08/18 00:58:22;;;;;;;7.65;5.15;;;;;;;;;;5014424;28;20141;-63
2021/08/18 01:01:08;;;;;;;9.27;5.07;;;;;;;;;;5015425;28;20050;-63
2021/08/18 01:03:54;;;;;;;8.05;4.57;;;;;;;;;;5015038;28;20046;-63
2021/08/18 01:06:40;;;;;;;17.35;5.78;;;;;;;;;;5014494;28;20050;-63
2021/08/18 01:09:27;;;;;;;8.38;5.35;;;;;;;;;;5015119;28;20153;-63
2021/08/18 01:12:13;;;;;;;9.15;5.53;;;;;;;;;;5015383;28;20046;-63
2021/08/18 01:14:58;;;;;;;7.28;4.40;;;;;;;;;;5015075;28;20046;-63
2021/08/18 01:17:44;;;;;;;8.77;5.00;;;;;;;;;;5012975;28;20416;-63
2021/08/18 01:20:33;;;;;;;8.88;5.32;;;;;;;;;;5015462;28;20065;-63
2021/08/18 01:23:19;;;;;;;8.85;5.78;;;;;;;;;;5015190;28;20042;-63
2021/08/18 01:26:05;;;;;;;10.02;5.95;;;;;;;;;;5014902;28;20512;-63
2021/08/18 01:28:50;;;;;;;8.70;5.10;;;;;;;;;;5014937;28;20060;-63
2021/08/18 01:31:36;;;;;;;7.63;5.60;;;;;;;;;;5014931;28;20049;-63
2021/08/18 01:34:21;;;;;;;10.95;5.10;;;;;;;;;;5014454;28;20046;-63
2021/08/18 01:37:07;;;;;;;7.30;6.05;;;;;;;;;;5013523;28;20050;-63
2021/08/18 01:39:52;;;;;;;12.38;6.65;;;;;;;;;;5014881;28;20056;-63
2021/08/18 01:42:39;;;;;;;9.80;6.75;;;;;;;;;;5014621;28;20061;-63
2021/08/18 01:45:28;;;;;;;8.63;6.20;;;;;;;;;;5014571;28;20574;-63
2021/08/18 01:48:14;;;;;;;9.07;5.43;;;;;;;;;;5015283;28;20049;-63
2021/08/18 01:51:00;;;;;;;13.73;7.07;;;;;;;;;;5016346;28;20070;-63
2021/08/18 01:53:46;;;;;;;11.48;5.85;;;;;;;;;;5015959;28;20077;-63
2021/08/18 01:56:32;;;;;;;7.32;4.88;;;;;;;;;;5014847;28;20049;-63
2021/08/18 01:59:17;;;;;;;11.38;5.82;;;;;;;;;;5014705;28;20133;-63
2021/08/18 02:02:03;;;;;;;12.45;5.72;;;;;;;;;;5016711;28;20081;-63
2021/08/18 02:04:48;;;;;;;10.40;4.90;;;;;;;;;;5016086;28;20084;-62
2021/08/18 02:07:34;;;;;;;9.07;4.85;;;;;;;;;;5016083;28;20057;-63
2021/08/18 02:10:19;;;;;;;11.23;6.05;;;;;;;;;;5015091;28;20501;-63
2021/08/18 02:13:05;;;;;;;10.25;5.43;;;;;;;;;;5014863;28;20073;-62
2021/08/18 02:15:50;;;;;;;7.45;4.68;;;;;;;;;;5014969;28;20038;-63
2021/08/18 02:18:35;;;;;;;11.27;5.65;;;;;;;;;;5012438;28;20049;-63
2021/08/18 02:21:21;;;;;;;11.18;5.32;;;;;;;;;;5014093;28;20485;-63
2021/08/18 02:24:06;;;;;;;12.10;4.78;;;;;;;;;;5013848;28;20378;-63
2021/08/18 02:26:52;;;;;;;8.60;4.90;;;;;;;;;;5014205;28;20136;-63
2021/08/18 02:29:37;;;;;;;8.23;5.85;;;;;;;;;;5012914;28;20046;-63
2021/08/18 02:32:23;;;;;;;7.28;5.20;;;;;;;;;;5013034;28;20417;-63
2021/08/18 02:35:08;;;;;;;9.23;5.55;;;;;;;;;;5013859;28;20045;-63
2021/08/18 02:37:54;;;;;;;14.38;6.25;;;;;;;;;;5013042;28;20638;-63
2021/08/18 02:40:40;;;;;;;10.10;5.50;;;;;;;;;;5013628;28;20484;-63
2021/08/18 02:43:25;;;;;;;5.55;4.57;;;;;;;;;;5013661;28;20054;-63
2021/08/18 02:46:10;;;;;;;9.20;5.13;;;;;;;;;;5012851;28;20128;-63
2021/08/18 02:48:56;;;;;;;10.43;4.60;;;;;;;;;;5013843;28;20117;-63
2021/08/18 02:51:41;;;;;;;10.30;5.10;;;;;;;;;;5013505;28;20085;-63
2021/08/18 02:54:28;;;;;;;12.68;6.35;;;;;;;;;;5013393;28;20134;-63
2021/08/18 02:57:13;;;;;;;12.35;5.93;;;;;;;;;;5011719;28;20072;-63
2021/08/18 02:59:58;;;;;;;10.50;6.93;;;;;;;;;;5013256;28;20046;-63
2021/08/18 03:02:44;;;;;;;12.48;7.47;;;;;;;;;;5013020;28;20050;-63
2021/08/18 03:05:29;;;;;;;15.20;6.80;;;;;;;;;;5013019;28;20057;-63
2021/08/18 03:08:14;;;;;;;11.45;5.68;;;;;;;;;;5012321;28;20054;-63
2021/08/18 03:11:00;;;;;;;10.35;5.72;;;;;;;;;;5013289;28;20053;-63
2021/08/18 03:13:45;;;;;;;8.95;5.78;;;;;;;;;;5012701;28;20057;-63
2021/08/18 03:16:30;;;;;;;7.28;5.18;;;;;;;;;;5013145;28;20045;-63
2021/08/18 03:19:16;;;;;;;8.07;4.97;;;;;;;;;;5013009;28;20187;-63
2021/08/18 03:22:01;;;;;;;9.00;5.20;;;;;;;;;;5012726;28;20049;-63
2021/08/18 03:24:47;;;;;;;12.07;5.65;;;;;;;;;;5012545;28;20408;-63
2021/08/18 03:27:32;;;;;;;12.02;7.47;;;;;;;;;;5012145;28;20077;-63
2021/08/18 03:30:18;;;;;;;10.73;5.78;;;;;;;;;;5012770;28;20196;-63
2021/08/18 03:33:03;;;;;;;11.10;5.50;;;;;;;;;;5012849;28;20053;-63
2021/08/18 03:35:48;;;;;;;10.13;5.93;;;;;;;;;;5012468;28;20546;-63
2021/08/18 03:38:35;;;;;;;11.70;5.68;;;;;;;;;;5011335;28;20500;-63
2021/08/18 03:41:20;;;;;;;6.93;5.13;;;;;;;;;;4993095;28;20413;-63
2021/08/18 03:44:06;;;;;;;9.77;5.60;;;;;;;;;;4992959;28;20050;-63
2021/08/18 03:46:51;;;;;;;12.02;6.03;;;;;;;;;;4993088;28;20054;-63
2021/08/18 03:49:36;;;;;;;10.43;5.30;;;;;;;;;;5006738;28;20096;-63
2021/08/18 03:52:22;;;;;;;9.63;5.30;;;;;;;;;;5010083;28;20049;-63
2021/08/18 03:55:08;;;;;;;9.35;5.38;;;;;;;;;;4992738;28;20504;-63
2021/08/18 03:57:53;;;;;;;10.07;6.07;;;;;;;;;;4992766;28;20046;-63
2021/08/18 04:00:39;;;;;;;7.57;4.72;;;;;;;;;;5012071;28;20042;-63
2021/08/18 04:03:25;;;;;;;8.32;5.57;;;;;;;;;;5012167;28;20081;-63
2021/08/18 04:06:10;;;;;;;8.10;4.63;;;;;;;;;;5012508;28;20172;-63
2021/08/18 04:08:58;;;;;;;8.25;5.00;;;;;;;;;;5011091;28;20497;-63
2021/08/18 04:11:43;;;;;;;9.70;5.00;;;;;;;;;;5011490;28;20100;-63
2021/08/18 04:14:28;;;;;;;9.20;4.93;;;;;;;;;;5011356;28;20089;-63
2021/08/18 04:17:14;;;;;;;8.90;4.95;;;;;;;;;;5012387;28;20069;-63
2021/08/18 04:19:59;;;;;;;9.15;4.32;;;;;;;;;;5012271;28;20054;-63
2021/08/18 04:22:46;;;;;;;6.63;4.80;;;;;;;;;;5012198;28;20054;-63
2021/08/18 04:25:31;;;;;;;7.82;4.43;;;;;;;;;;5012110;28;20104;-63
2021/08/18 04:28:20;;;;;;;12.25;4.82;;;;;;;;;;5011413;28;20042;-63
2021/08/18 04:31:05;;;;;;;8.73;4.95;;;;;;;;;;5012159;28;20177;-63
2021/08/18 04:33:50;;;;;;;7.22;4.28;;;;;;;;;;5015321;28;20057;-63
2021/08/18 04:36:36;;;;;;;8.63;4.13;;;;;;;;;;5016161;28;20046;-64
2021/08/18 04:39:21;;;;;;;11.75;4.57;;;;;;;;;;5015387;28;20597;-63
2021/08/18 04:42:07;;;;;;;6.75;3.95;;;;;;;;;;5016097;28;20057;-63
2021/08/18 04:44:52;;;;;;;8.48;4.35;;;;;;;;;;5015685;28;20046;-63
2021/08/18 04:47:37;;;;;;;8.18;4.50;;;;;;;;;;5015928;28;20054;-63
2021/08/18 04:50:25;;;;;;;8.10;5.07;;;;;;;;;;5013858;28;20049;-63
2021/08/18 04:53:11;;;;;;;6.32;4.53;;;;;;;;;;5015749;28;20408;-63
2021/08/18 04:55:56;;;;;;;6.45;4.40;;;;;;;;;;5015563;28;20489;-63
2021/08/18 04:58:46;;;;;;;7.55;4.45;;;;;;;;;;4999066;28;20089;-63
2021/08/18 05:01:31;;;;;;;9.80;4.28;;;;;;;;;;4997359;28;20050;-63
2021/08/18 05:04:17;;;;;;;7.80;4.60;;;;;;;;;;4996415;28;20046;-63
2021/08/18 05:07:02;;;;;;;10.07;4.85;;;;;;;;;;4995821;28;20066;-63
2021/08/18 05:09:47;;;;;;;9.52;5.10;;;;;;;;;;4995752;28;20038;-63
2021/08/18 05:12:33;;;;;;;9.15;5.18;;;;;;;;;;4995776;28;20520;-63
2021/08/18 05:15:18;;;;;;;6.75;4.30;;;;;;;;;;4995422;28;20058;-63
2021/08/18 05:18:04;;;;;;;7.28;4.15;;;;;;;;;;4999381;28;20058;-63
2021/08/18 05:20:50;;;;;;;7.78;4.68;;;;;;;;;;5016194;28;20046;-63
2021/08/18 05:23:37;;;;;;;6.57;4.32;;;;;;;;;;5013611;28;20177;-63
2021/08/18 05:26:22;;;;;;;10.82;4.95;;;;;;;;;;5016896;28;20085;-63
2021/08/18 05:29:08;;;;;;;10.68;3.95;;;;;;;;;;5016046;28;20081;-63
2021/08/18 05:31:53;;;;;;;7.93;3.92;;;;;;;;;;5017234;28;20050;-63
2021/08/18 05:34:39;;;;;;;8.60;4.68;;;;;;;;;;5014754;28;20054;-63
2021/08/18 05:37:24;;;;;;;8.93;4.53;;;;;;;;;;5016125;28;20116;-63
2021/08/18 05:40:10;;;;;;;10.80;5.65;;;;;;;;;;5028711;28;20053;-63
2021/08/18 05:42:56;;;;;;;10.30;5.32;;;;;;;;;;5017166;28;20057;-63
2021/08/18 05:45:41;;;;;;;9.32;4.40;;;;;;;;;;5016528;28;20037;-63
2021/08/18 05:48:27;;;;;;;8.73;4.07;;;;;;;;;;5014875;28;20123;-62
2021/08/18 05:51:12;;;;;;;7.40;3.65;;;;;;;;;;5016816;28;20045;-63
2021/08/18 05:54:01;;;;;;;5.50;3.30;;;;;;;;;;5016803;28;20054;-63
2021/08/18 05:56:47;;;;;;;7.25;3.03;;;;;;;;;;5017364;28;20042;-63
2021/08/18 05:59:32;;;;;;;6.10;3.13;;;;;;;;;;5015869;28;20057;-63
2021/08/18 06:02:17;;;;;;;7.47;3.25;;;;;;;;;;5014851;28;20092;-62
2021/08/18 06:05:03;;;;;;;3.92;3.03;;;;;;;;;;5015768;28;20054;-63
2021/08/18 06:07:49;;;;;;;4.50;3.15;;;;;;;;;;5013516;28;20050;-63
2021/08/18 06:10:34;;;;;;;6.53;3.00;;;;;;;;;;5014275;28;20042;-63
2021/08/18 06:13:20;;;;;;;5.72;3.53;;;;;;;;;;5014095;28;20068;-63
2021/08/18 06:16:05;;;;;;;5.20;3.40;;;;;;;;;;5014249;28;20041;-65
2021/08/18 06:18:51;;;;;;;6.38;4.75;;;;;;;;;;5013364;28;20045;-64
2021/08/18 06:21:36;;;;;;;9.35;3.75;;;;;;;;;;5014013;28;20057;-64
2021/08/18 06:24:41;;;;;;;4.13;3.58;;;;;;;;;;5013981;28;20496;-64
2021/08/18 06:27:26;;;;;;;7.55;4.28;;;;;;;;;;5013876;28;20085;-64
2021/08/18 06:30:11;;;;;;;6.65;4.10;;;;;;;;;;5013011;28;20053;-64
2021/08/18 06:32:57;;;;;;;4.25;3.53;;;;;;;;;;5013814;28;20041;-64
2021/08/18 06:35:42;;;;;;;6.13;3.25;;;;;;;;;;5012213;28;20042;-64
2021/08/18 06:38:28;;;;;;;9.70;3.97;;;;;;;;;;5013943;28;20123;-64
2021/08/18 06:41:13;;;;;;;6.35;4.00;;;;;;;;;;5013618;28;20046;-65
2021/08/18 06:43:58;;;;;;;7.30;3.38;;;;;;;;;;5013542;28;20133;-64
2021/08/18 06:46:44;;;;;;;5.22;3.67;;;;;;;;;;5012681;28;20057;-65
2021/08/18 06:49:29;;;;;;;8.27;4.25;;;;;;;;;;5013566;28;20042;-65
2021/08/18 06:52:14;;;;;;;6.05;4.20;;;;;;;;;;5013591;28;20484;-65
2021/08/18 06:55:00;;;;;;;5.38;3.75;;;;;;;;;;5012384;28;20077;-65
2021/08/18 06:57:46;;;;;;;7.07;3.65;;;;;;;;;;5012645;28;20057;-65
2021/08/18 07:00:32;;;;;;;6.38;3.78;;;;;;;;;;5011512;28;20417;-65
2021/08/18 07:03:17;;;;;;;7.60;4.03;;;;;;;;;;5012989;28;20045;-65
2021/08/18 07:06:03;;;;;;;6.53;4.18;;;;;;;;;;5007425;28;20056;-65
2021/08/18 07:08:48;;;;;;;9.13;4.55;;;;;;;;;;5001310;28;20066;-65
2021/08/18 07:11:33;;;;;;;6.60;3.60;;;;;;;;;;5004026;28;20075;-65
2021/08/18 07:14:19;;;;;;;8.07;4.03;;;;;;;;;;5001059;28;20197;-65
2021/08/18 07:17:04;;;;;;;8.55;3.80;;;;;;;;;;5011008;28;20563;-65
2021/08/18 07:19:50;;;;;;;6.60;4.07;;;;;;;;;;5013143;28;20052;-65
2021/08/18 07:22:35;;;;;;;7.65;4.07;;;;;;;;;;5013057;28;20050;-65
2021/08/18 07:25:20;;;;;;;6.45;3.90;;;;;;;;;;5012035;28;20050;-65
2021/08/18 07:28:06;;;;;;;7.22;4.15;;;;;;;;;;5012655;28;20068;-64
2021/08/18 07:30:51;;;;;;;9.82;4.68;;;;;;;;;;5012628;28;20041;-64
2021/08/18 07:33:37;;;;;;;9.90;3.97;;;;;;;;;;5010839;28;20096;-64
2021/08/18 07:36:22;;;;;;;9.00;4.15;;;;;;;;;;5012600;28;20049;-64
2021/08/18 07:39:07;;;;;;;9.93;4.78;;;;;;;;;;5012517;28;20516;-64
2021/08/18 07:41:53;;;;;;;9.20;4.60;;;;;;;;;;5012438;28;20519;-64
2021/08/18 07:44:38;;;;;;;9.10;4.47;;;;;;;;;;5011556;28;20484;-64
2021/08/18 07:47:24;;;;;;;7.70;5.10;;;;;;;;;;5012418;28;20488;-64
2021/08/18 07:50:09;;;;;;;14.05;5.15;;;;;;;;;;5012596;28;20056;-64
2021/08/18 07:52:55;;;;;;;9.85;5.68;;;;;;;;;;5012496;28;20046;-64
2021/08/18 07:55:40;;;;;;;14.02;6.20;;;;;;;;;;5011204;28;20128;-64
2021/08/18 07:58:26;;;;;;;7.78;4.75;;;;;;;;;;5012384;28;20448;-64
2021/08/18 08:01:11;;;;;;;10.45;5.07;;;;;;;;;;5012485;28;20512;-64
2021/08/18 08:03:56;;;;;;;6.93;4.45;;;;;;;;;;5010852;28;20116;-64
2021/08/18 08:06:44;;;;;;;10.48;5.25;;;;;;;;;;5012267;28;20053;-64
2021/08/18 08:09:29;;;;;;;7.30;4.35;;;;;;;;;;5012168;28;20056;-64
2021/08/18 08:12:15;;;;;;;7.32;4.05;;;;;;;;;;5012130;28;20042;-64
2021/08/18 08:15:00;;;;;;;6.30;4.18;;;;;;;;;;5011443;28;20045;-64
2021/08/18 08:17:46;;;;;;;7.30;4.45;;;;;;;;;;5012223;28;20049;-64
2021/08/18 08:20:31;;;;;;;7.55;3.63;;;;;;;;;;5012153;28;20092;-64
2021/08/18 08:23:16;;;;;;;7.35;4.07;;;;;;;;;;5012501;28;20049;-64
2021/08/18 08:26:02;;;;;;;7.07;3.75;;;;;;;;;;5011244;28;20504;-64
2021/08/18 08:28:47;;;;;;;7.07;3.58;;;;;;;;;;5012071;28;20056;-64
2021/08/18 08:31:33;;;;;;;7.95;3.40;;;;;;;;;;5012205;28;20407;-64
2021/08/18 08:34:19;;;;;;;6.00;3.40;;;;;;;;;;5011879;28;20049;-64
2021/08/18 08:37:04;;;;;;;4.68;3.45;;;;;;;;;;5011330;28;20042;-64
2021/08/18 08:39:49;;;;;;;6.13;3.22;;;;;;;;;;5012181;28;20045;-63
2021/08/18 08:42:35;;;;;;;5.38;3.00;;;;;;;;;;5011936;28;20038;-63
2021/08/18 08:45:20;;;;;;;4.10;2.88;;;;;;;;;;5010758;28;20046;-64
2021/08/18 08:48:07;;;;;;;5.28;2.97;;;;;;;;;;5011243;28;20069;-63
2021/08/18 08:50:52;;;;;;;5.25;2.80;;;;;;;;;;5011992;28;20143;-63
2021/08/18 08:53:37;;;;;;;5.20;2.75;;;;;;;;;;5011541;28;20053;-64
2021/08/18 08:56:23;;;;;;;7.00;3.20;;;;;;;;;;5011257;28;20046;-64
2021/08/18 08:59:08;;;;;;;6.07;2.80;;;;;;;;;;5011761;28;20515;-64
2021/08/18 09:02:09;;;;;;;6.00;2.97;;;;;;;;;;5011671;28;20056;-63
2021/08/18 09:04:54;;;;;;;4.03;2.60;;;;;;;;;;5011776;28;20057;-64
2021/08/18 09:07:40;;;;;;;3.75;2.90;;;;;;;;;;5010927;28;20050;-64
2021/08/18 09:10:25;;;;;;;5.63;3.03;;;;;;;;;;5011678;28;20133;-64
2021/08/18 09:13:14;;;;;;;5.80;2.47;;;;;;;;;;5011737;28;20052;-64
2021/08/18 09:16:03;;;;;;;6.63;2.80;;;;;;;;;;5011732;28;20057;-67
2021/08/18 09:18:52;;;;;;;7.75;3.13;;;;;;;;;;5012186;28;20518;-64
2021/08/18 09:21:38;;;;;;;6.95;2.78;;;;;;;;;;5015280;28;20060;-64
2021/08/18 09:24:24;;;;;;;3.08;2.30;;;;;;;;;;5014971;28;20061;-64
2021/08/18 09:27:10;;;;;;;3.97;2.60;;;;;;;;;;5014340;28;20049;-64
2021/08/18 09:29:55;;;;;;;5.82;2.80;;;;;;;;;;5015177;28;20053;-64
2021/08/18 09:32:40;;;;;;;4.78;2.80;;;;;;;;;;5013915;28;20559;-64
2021/08/18 09:35:27;;;;;;;3.30;2.85;;;;;;;;;;5013973;28;20125;-64
2021/08/18 09:38:13;;;;;;;3.40;2.97;;;;;;;;;;5013818;28;20042;-64
2021/08/18 09:40:59;;;;;;;4.53;2.58;;;;;;;;;;5014913;28;20049;-64
2021/08/18 09:43:44;;;;;;;3.05;2.28;;;;;;;;;;5014726;28;20053;-64
2021/08/18 09:46:29;;;;;;;5.95;2.83;;;;;;;;;;5013855;28;20077;-64
2021/08/18 09:49:14;;;;;;;5.05;2.90;;;;;;;;;;5008256;28;20038;-64
2021/08/18 09:52:00;;;;;;;6.32;3.13;;;;;;;;;;5014109;28;20045;-63
2021/08/18 09:54:45;;;;;;;7.20;2.88;;;;;;;;;;5014694;28;20050;-64
2021/08/18 09:57:31;;;;;;;4.72;3.03;;;;;;;;;;5013669;28;20056;-64
2021/08/18 10:00:16;;;;;;;4.80;3.10;;;;;;;;;;5011316;28;20049;-64
2021/08/18 10:03:01;;;;;;;3.58;2.97;;;;;;;;;;4993911;28;20077;-64
2021/08/18 10:05:48;;;;;;;5.35;3.28;;;;;;;;;;4992996;28;20057;-64
2021/08/18 10:08:34;;;;;;;7.07;3.40;;;;;;;;;;4994193;28;20050;-64
2021/08/18 10:11:20;;;;;;;5.63;2.92;;;;;;;;;;4993981;28;20046;-64
2021/08/18 10:14:06;;;;;;;8.98;3.22;;;;;;;;;;4993644;28;20500;-64
2021/08/18 10:16:51;;;;;;;4.90;3.03;;;;;;;;;;5000152;28;20073;-64
2021/08/18 10:19:36;;;;;;;6.05;2.72;;;;;;;;;;4995948;28;20135;-64
2021/08/18 10:22:26;;;;;;;5.80;3.22;;;;;;;;;;4996566;28;20073;-64
2021/08/18 10:25:29;;;;;;;7.10;3.20;;;;;;;;;;5012504;28;20137;-64
2021/08/18 10:28:16;;;;;;;6.38;3.20;;;;;;;;;;5012597;28;20066;-64
2021/08/18 10:31:01;;;;;;;3.15;2.60;;;;;;;;;;5012760;28;20049;-64
2021/08/18 10:33:54;;;;;;;8.93;3.53;;;;;;;;;;5013676;28;20488;-64
2021/08/18 10:36:42;;;;;;;4.32;3.28;;;;;;;;;;5012963;28;20041;-64
2021/08/18 10:39:28;;;;;;;3.97;3.17;;;;;;;;;;5012205;28;20459;-63
2021/08/18 10:42:13;;;;;;;6.00;2.85;;;;;;;;;;5012893;28;20451;-64
2021/08/18 10:44:59;;;;;;;3.40;2.95;;;;;;;;;;5011933;28;20404;-63
2021/08/18 10:47:44;;;;;;;5.35;2.90;;;;;;;;;;5010324;28;20053;-64
2021/08/18 10:50:38;;;;;;;5.22;2.90;;;;;;;;;;5010755;28;20454;-64
2021/08/18 10:53:33;;;;;;;5.22;2.67;;;;;;;;;;5010950;28;20488;-64
2021/08/18 10:56:37;;;;;;;5.05;2.78;;;;;;;;;;4993199;28;20053;-64
2021/08/18 10:59:37;;;;;;;3.72;2.10;;;;;;;;;;4999405;28;20128;-64
2021/08/18 11:02:41;;;;;;;4.63;2.42;;;;;;;;;;5010080;28;20052;-63
2021/08/18 11:05:29;;;;;;;4.32;1.90;;;;;;;;;;5009770;28;20515;-64
2021/08/18 11:08:14;;;;;;;4.82;2.05;;;;;;;;;;5011889;28;20050;-63
2021/08/18 11:11:00;;;;;;;5.80;2.03;;;;;;;;;;5010309;28;20045;-63
2021/08/18 11:13:49;;;;;;;4.47;2.10;;;;;;;;;;5010676;28;20475;-64
2021/08/18 11:16:34;;;;;;;2.83;2.03;;;;;;;;;;5010664;28;20050;-63
2021/08/18 11:19:20;;;;;;;4.53;2.00;;;;;;;;;;5012744;28;20112;-63
2021/08/18 11:22:13;;;;;;;2.55;2.15;;;;;;;;;;5003645;28;20140;-63
2021/08/18 11:25:02;;;;;;;3.47;2.05;;;;;;;;;;5001449;28;20058;-64
2021/08/18 11:27:48;;;;;;;5.28;2.33;;;;;;;;;;5011478;28;20049;-63
2021/08/18 11:30:33;;;;;;;4.90;2.30;;;;;;;;;;5010730;28;20111;-63
2021/08/18 11:33:19;;;;;;;6.68;2.10;;;;;;;;;;5011507;28;20056;-63
2021/08/18 11:36:13;;;;;;;3.67;2.65;;;;;;;;;;5012280;28;20052;-63
2021/08/18 11:38:59;;;;;;;4.38;2.13;;;;;;;;;;5012228;28;20123;-63
2021/08/18 11:41:45;;;;;;;3.47;1.80;;;;;;;;;;5010587;28;20053;-63
2021/08/18 11:44:31;;;;;;;4.40;2.10;;;;;;;;;;5011181;28;20052;-64
2021/08/18 11:47:17;;;;;;;5.75;2.13;;;;;;;;;;5011657;28;20061;-63
2021/08/18 11:50:03;;;;;;;3.75;1.65;;;;;;;;;;5008264;28;20054;-63
2021/08/18 11:52:50;;;;;;;5.05;1.70;;;;;;;;;;5009907;28;20512;-62
2021/08/18 11:55:36;;;;;;;2.13;1.90;;;;;;;;;;4992081;28;20057;-62
2021/08/18 11:58:27;;;;;;;5.07;2.20;;;;;;;;;;4997225;28;20519;-63
2021/08/18 12:01:12;;;;;;;4.00;1.73;;;;;;;;;;5010867;28;20125;-64
2021/08/18 12:03:58;;;;;;;3.90;1.63;;;;;;;;;;4995638;28;20072;-63
2021/08/18 12:06:43;;;;;;;3.38;2.22;;;;;;;;;;5010521;28;20060;-63
2021/08/18 12:09:29;;;;;;;5.05;2.03;;;;;;;;;;5012373;28;20594;-64
2021/08/18 12:12:15;;;;;;;5.22;2.50;;;;;;;;;;5010074;28;20054;-64
2021/08/18 12:15:08;;;;;;;4.75;2.45;;;;;;;;;;4996722;28;20057;-64
2021/08/18 12:17:53;;;;;;;3.17;1.77;;;;;;;;;;4992112;28;20138;-64
2021/08/18 12:20:39;;;;;;;5.72;2.10;;;;;;;;;;5011971;28;20420;-64
2021/08/18 12:23:25;;;;;;;3.58;2.17;;;;;;;;;;5001916;28;20051;-63
2021/08/18 12:26:26;;;;;;;4.70;2.08;;;;;;;;;;5005207;28;20048;-63
2021/08/18 12:29:12;;;;;;;3.33;2.08;;;;;;;;;;5012140;28;20419;-63
2021/08/18 12:31:59;;;;;;;3.42;2.08;;;;;;;;;;4992219;28;20052;-63
2021/08/18 12:34:44;;;;;;;3.78;1.98;;;;;;;;;;4992186;28;20053;-63
2021/08/18 12:37:31;;;;;;;5.40;2.90;;;;;;;;;;5011788;28;20484;-63
2021/08/18 12:40:27;;;;;;;7.65;2.75;;;;;;;;;;5010757;28;20120;-61
2021/08/18 12:43:12;;;;;;;3.08;2.03;;;;;;;;;;5010249;28;20061;-61
2021/08/18 12:45:57;;;;;;;2.47;2.25;;;;;;;;;;5010169;28;20399;-61
2021/08/18 12:48:42;;;;;;;4.35;2.13;;;;;;;;;;5010135;28;20046;-61
2021/08/18 12:51:28;;;;;;;4.00;2.50;;;;;;;;;;5011661;28;20058;-61
2021/08/18 12:54:13;;;;;;;3.97;2.60;;;;;;;;;;5012042;28;20160;-61
2021/08/18 12:57:00;;;;;;;3.53;2.85;;;;;;;;;;5008884;28;20135;-61
2021/08/18 12:59:45;;;;;;;3.33;2.40;;;;;;;;;;5014001;28;20042;-61
2021/08/18 13:02:31;;;;;;;2.83;2.53;;;;;;;;;;5014789;28;20513;-61
2021/08/18 13:05:16;;;;;;;5.07;2.70;;;;;;;;;;5013795;28;20129;-61
2021/08/18 13:08:02;;;;;;;3.80;2.97;;;;;;;;;;5012919;28;20048;-61
2021/08/18 13:10:47;;;;;;;5.57;3.33;;;;;;;;;;5013139;28;20049;-61
2021/08/18 13:13:33;;;;;;;4.25;2.75;;;;;;;;;;5025483;28;20054;-61
2021/08/18 13:16:18;;;;;;;3.53;2.85;;;;;;;;;;5014125;28;20049;-61
2021/08/18 13:19:03;;;;;;;3.97;2.58;;;;;;;;;;5013508;28;20068;-61
2021/08/18 13:21:49;;;;;;;3.42;3.10;;;;;;;;;;5014462;28;20054;-61
2021/08/18 13:24:34;;;;;;;5.05;3.13;;;;;;;;;;5012980;28;20058;-61
2021/08/18 13:27:20;;;;;;;4.72;3.13;;;;;;;;;;5003484;28;20045;-61
2021/08/18 13:30:06;;;;;;;6.60;3.35;;;;;;;;;;5006320;28;20138;-61
2021/08/18 13:32:51;;;;;;;5.22;3.42;;;;;;;;;;5002871;28;20053;-61
2021/08/18 13:35:37;;;;;;;4.47;3.60;;;;;;;;;;5008662;28;20060;-61
2021/08/18 13:38:22;;;;;;;4.22;3.83;;;;;;;;;;5013829;28;20200;-61
2021/08/18 13:41:07;;;;;;;5.13;3.88;;;;;;;;;;5011967;28;20049;-61
2021/08/18 13:43:53;;;;;;;5.45;4.70;;;;;;;;;;5012560;28;20053;-61
2021/08/18 13:46:38;;;;;;;6.38;4.18;;;;;;;;;;5014041;28;20061;-61
2021/08/18 13:49:23;;;;;;;8.20;4.10;;;;;;;;;;5012363;28;20044;-61
2021/08/18 13:52:09;;;;;;;6.35;4.13;;;;;;;;;;5013666;28;20052;-61
2021/08/18 13:54:54;;;;;;;6.28;5.40;;;;;;;;;;5013259;28;20045;-61
2021/08/18 13:57:39;;;;;;;7.35;5.70;;;;;;;;;;5012491;28;20057;-61
2021/08/18 14:00:25;;;;;;;6.22;5.63;;;;;;;;;;5013002;28;20109;-61
2021/08/18 14:03:13;;;;;;;8.07;5.28;;;;;;;;;;5011916;28;20052;-61
2021/08/18 14:05:58;;;;;;;10.15;6.05;;;;;;;;;;5010928;28;20045;-61
2021/08/18 14:08:45;;;;;;;11.82;6.43;;;;;;;;;;5013422;28;20607;-61
2021/08/18 14:11:30;;;;;;;7.00;6.30;;;;;;;;;;5012408;28;20042;-61
2021/08/18 14:14:16;;;;;;;7.28;6.18;;;;;;;;;;5011907;28;20048;-61
2021/08/18 14:17:01;;;;;;;9.15;6.88;;;;;;;;;;5013727;28;20121;-61
2021/08/18 14:19:47;;;;;;;8.95;6.75;;;;;;;;;;4994239;28;20046;-61
2021/08/18 14:22:32;;;;;;;7.60;5.72;;;;;;;;;;4996021;28;20042;-61
2021/08/18 14:25:17;;;;;;;9.63;6.55;;;;;;;;;;5012630;28;20068;-61
2021/08/18 14:28:02;;;;;;;8.65;7.28;;;;;;;;;;5009507;28;20043;-61
2021/08/18 14:30:48;;;;;;;10.27;7.25;;;;;;;;;;5013613;28;20148;-61
2021/08/18 14:33:33;;;;;;;13.65;8.30;;;;;;;;;;5012280;28;20049;-61
2021/08/18 14:36:21;;;;;;;11.30;8.20;;;;;;;;;;5012893;28;20061;-61
2021/08/18 14:39:06;;;;;;;11.40;8.50;;;;;;;;;;5011144;28;20049;-61
2021/08/18 14:41:52;;;;;;;12.00;8.18;;;;;;;;;;5012579;28;20046;-62
2021/08/18 14:44:37;;;;;;;12.98;7.63;;;;;;;;;;5012529;28;20115;-61
2021/08/18 14:47:23;;;;;;;11.30;7.90;;;;;;;;;;5011474;28;20073;-61
2021/08/18 14:50:08;;;;;;;11.98;7.90;;;;;;;;;;5011763;28;20046;-61
2021/08/18 14:52:54;;;;;;;14.43;8.40;;;;;;;;;;5011550;28;20046;-61
2021/08/18 14:55:39;;;;;;;12.05;8.45;;;;;;;;;;5012745;28;20061;-61
2021/08/18 14:58:24;;;;;;;9.73;8.40;;;;;;;;;;5012175;28;20567;-61
2021/08/18 15:01:10;;;;;;;11.48;9.00;;;;;;;;;;5010485;28;20050;-61
2021/08/18 15:03:55;;;;;;;11.98;9.32;;;;;;;;;;5010782;28;20049;-61
2021/08/18 15:06:40;;;;;;;11.68;9.38;;;;;;;;;;5009471;28;20040;-61
2021/08/18 15:09:26;;;;;;;13.15;8.68;;;;;;;;;;5011715;28;20485;-61
2021/08/18 15:12:11;;;;;;;13.15;8.73;;;;;;;;;;5009749;28;20046;-61
2021/08/18 15:14:57;;;;;;;13.45;8.88;;;;;;;;;;4993411;28;20054;-61
2021/08/18 15:17:42;;;;;;;11.48;8.63;;;;;;;;;;4997720;28;20072;-61
2021/08/18 15:20:27;;;;;;;10.52;8.10;;;;;;;;;;5012430;28;20053;-61
2021/08/18 15:23:13;;;;;;;11.32;8.13;;;;;;;;;;5010763;28;20049;-61
2021/08/18 15:25:58;;;;;;;13.95;8.30;;;;;;;;;;5011408;28;20046;-61
2021/08/18 15:28:47;;;;;;;10.50;8.15;;;;;;;;;;5011237;28;20531;-61
2021/08/18 15:31:32;;;;;;;12.43;7.75;;;;;;;;;;5011616;28;20081;-61
2021/08/18 15:34:18;;;;;;;11.88;8.30;;;;;;;;;;5010043;28;20116;-61
2021/08/18 15:37:04;;;;;;;10.90;8.18;;;;;;;;;;5012708;28;20049;-61
2021/08/18 15:39:51;;;;;;;12.68;8.43;;;;;;;;;;5012659;28;20193;-61
2021/08/18 15:42:37;;;;;;;14.45;8.77;;;;;;;;;;5011344;28;20053;-61
2021/08/18 15:45:22;;;;;;;13.55;8.45;;;;;;;;;;5011536;28;20408;-61
2021/08/18 15:48:08;;;;;;;12.15;7.60;;;;;;;;;;5010367;28;20072;-61
2021/08/18 15:50:53;;;;;;;10.30;7.00;;;;;;;;;;5011864;28;20411;-61
2021/08/18 15:53:39;;;;;;;12.13;7.70;;;;;;;;;;5010478;28;20061;-61
2021/08/18 15:56:24;;;;;;;9.18;6.35;;;;;;;;;;5010281;28;20112;-61
2021/08/18 15:59:10;;;;;;;13.10;7.53;;;;;;;;;;5010931;28;20096;-61
2021/08/18 16:01:55;;;;;;;9.68;6.78;;;;;;;;;;5012168;28;20061;-61
2021/08/18 16:04:40;;;;;;;8.15;6.75;;;;;;;;;;5010350;28;20053;-61
2021/08/18 16:07:26;;;;;;;9.40;6.20;;;;;;;;;;5008428;28;20116;-61
2021/08/18 16:10:11;;;;;;;9.48;5.45;;;;;;;;;;5011361;28;20049;-62
2021/08/18 16:12:57;;;;;;;9.43;6.57;;;;;;;;;;5006065;28;20041;-61
2021/08/18 16:15:43;;;;;;;7.93;5.80;;;;;;;;;;5003244;28;20089;-61
2021/08/18 16:18:30;;;;;;;9.13;5.97;;;;;;;;;;5000968;28;20323;-61
2021/08/18 16:21:15;;;;;;;7.03;5.00;;;;;;;;;;5000942;28;20046;-62
2021/08/18 16:24:00;;;;;;;8.68;5.13;;;;;;;;;;5002825;28;20054;-61
2021/08/18 16:26:45;;;;;;;6.70;4.80;;;;;;;;;;5005233;28;20412;-62
2021/08/18 16:29:31;;;;;;;7.93;4.47;;;;;;;;;;5016302;28;20060;-61
2021/08/18 16:32:16;;;;;;;9.55;5.05;;;;;;;;;;4996053;28;20174;-61